Time;durP1;ratioP1;P1;durP2;ratioP2;P2;SDS_P1;SDS_P2;PMS_P1;PMS_P2;Temp;Humidity;BMP_temperature;BMP_pressure;BME280_temperature;BME280_humidity;BME280_pressure;Samples;Min_cycle;Max_cycle;Signal;HPM_P1;HPM_P2
2024/02/01 00:02:06;;;;;;;10.25;7.05;;;6.50;99.90;;;;;;5069621;28;20405;-43
2024/02/01 00:04:31;;;;;;;8.68;6.10;;;6.50;99.90;;;;;;5070154;28;20478;-47
2024/02/01 00:06:57;;;;;;;10.57;6.70;;;6.50;99.90;;;;;;5081609;28;20017;-43
2024/02/01 00:09:22;;;;;;;9.52;6.88;;;6.50;99.90;;;;;;5074896;28;20067;-44
2024/02/01 00:11:48;;;;;;;9.25;6.40;;;6.50;99.90;;;;;;5068250;28;20028;-44
2024/02/01 00:14:14;;;;;;;11.75;7.32;;;6.50;99.90;;;;;;5075507;28;20025;-44
2024/02/01 00:16:40;;;;;;;10.70;6.65;;;6.50;99.90;;;;;;5068104;28;20021;-45
2024/02/01 00:19:05;;;;;;;11.15;6.38;;;6.60;99.90;;;;;;5072189;28;20477;-44
2024/02/01 00:21:31;;;;;;;8.93;6.22;;;6.60;99.90;;;;;;5071575;28;20017;-45
2024/02/01 00:23:57;;;;;;;11.52;7.22;;;6.60;99.90;;;;;;5069493;28;20027;-45
2024/02/01 00:26:22;;;;;;;12.93;6.57;;;6.60;99.90;;;;;;5073807;28;20610;-44
2024/02/01 00:28:48;;;;;;;12.93;6.72;;;6.60;99.90;;;;;;5075264;28;20020;-45
2024/02/01 00:31:13;;;;;;;10.73;6.78;;;6.60;99.90;;;;;;5075299;28;20024;-46
2024/02/01 00:33:40;;;;;;;10.25;6.47;;;6.60;99.90;;;;;;5074835;28;20482;-46
2024/02/01 00:36:05;;;;;;;10.95;6.78;;;6.60;99.90;;;;;;5077228;28;20081;-45
2024/02/01 00:38:31;;;;;;;12.65;6.80;;;6.60;99.90;;;;;;5072396;28;20028;-45
2024/02/01 00:40:57;;;;;;;8.35;6.28;;;6.60;99.90;;;;;;5069043;28;20028;-44
2024/02/01 00:43:22;;;;;;;11.70;6.95;;;6.60;99.90;;;;;;5073223;28;20027;-46
2024/02/01 00:45:48;;;;;;;13.10;7.45;;;6.60;99.90;;;;;;5070075;28;20406;-43
2024/02/01 00:48:13;;;;;;;12.65;7.20;;;6.60;99.90;;;;;;5068717;28;20021;-46
2024/02/01 00:50:39;;;;;;;12.48;7.72;;;6.60;99.90;;;;;;5068748;28;20032;-45
2024/02/01 00:53:04;;;;;;;18.60;7.85;;;6.50;99.90;;;;;;5068719;28;20101;-45
2024/02/01 00:55:30;;;;;;;11.13;7.47;;;6.50;99.90;;;;;;5072878;28;20111;-47
2024/02/01 00:57:55;;;;;;;15.10;8.68;;;6.50;99.90;;;;;;5065366;28;20028;-44
2024/02/01 01:00:21;;;;;;;13.27;9.05;;;6.50;99.90;;;;;;5073708;28;20021;-44
2024/02/01 01:02:46;;;;;;;17.63;8.50;;;6.50;99.90;;;;;;5067652;28;20021;-45
2024/02/01 01:05:12;;;;;;;14.07;9.48;;;6.40;99.90;;;;;;5067277;28;20028;-47
2024/02/01 01:07:37;;;;;;;17.52;9.27;;;6.40;99.90;;;;;;5067660;28;20371;-47
2024/02/01 01:10:03;;;;;;;19.25;9.68;;;6.40;99.90;;;;;;5066121;28;20104;-44
2024/02/01 01:12:30;;;;;;;14.23;9.85;;;6.30;99.90;;;;;;5067357;28;20037;-44
2024/02/01 01:14:56;;;;;;;16.38;9.38;;;6.30;99.90;;;;;;5068969;28;20012;-43
2024/02/01 01:17:21;;;;;;;16.70;10.85;;;6.30;99.90;;;;;;5067083;28;20029;-46
2024/02/01 01:19:47;;;;;;;21.50;11.23;;;6.30;99.90;;;;;;5073659;28;20020;-48
2024/02/01 01:22:12;;;;;;;25.08;12.82;;;6.20;99.90;;;;;;5070562;28;20488;-45
2024/02/01 01:24:38;;;;;;;21.00;12.15;;;6.20;99.90;;;;;;5071024;28;20466;-45
2024/02/01 01:27:04;;;;;;;21.35;12.18;;;6.20;99.90;;;;;;5067957;28;20474;-44
2024/02/01 01:29:29;;;;;;;21.83;12.38;;;6.10;99.90;;;;;;5068356;28;20036;-45
2024/02/01 01:31:55;;;;;;;25.33;12.10;;;6.10;99.90;;;;;;5067698;28;20032;-43
2024/02/01 01:34:20;;;;;;;23.00;13.20;;;6.10;99.90;;;;;;5068086;28;20017;-44
2024/02/01 01:36:46;;;;;;;25.30;14.52;;;6.10;99.90;;;;;;5068102;28;20039;-44
2024/02/01 01:39:11;;;;;;;19.73;12.93;;;6.10;99.90;;;;;;5066987;28;20038;-45
2024/02/01 01:41:43;;;;;;;21.17;14.02;;;6.00;99.90;;;;;;5067470;28;20048;-44
2024/02/01 01:44:09;;;;;;;24.15;14.60;;;6.00;99.90;;;;;;5073196;28;20017;-44
2024/02/01 01:46:34;;;;;;;22.08;14.98;;;6.00;99.90;;;;;;5068157;28;20021;-44
2024/02/01 01:49:00;;;;;;;28.23;16.50;;;6.00;99.90;;;;;;5071589;28;20095;-43
2024/02/01 01:51:26;;;;;;;28.30;15.77;;;6.00;99.90;;;;;;5073179;28;20428;-44
2024/02/01 01:53:53;;;;;;;31.92;17.38;;;6.00;99.90;;;;;;5073007;28;20031;-44
2024/02/01 01:56:18;;;;;;;29.65;16.15;;;5.90;99.90;;;;;;5067635;28;20016;-45
2024/02/01 01:58:46;;;;;;;31.55;16.40;;;5.90;99.90;;;;;;5067873;28;20086;-43
2024/02/01 02:01:12;;;;;;;31.77;17.67;;;5.90;99.90;;;;;;5067726;28;20032;-43
2024/02/01 02:03:38;;;;;;;28.73;17.77;;;5.90;99.90;;;;;;5067523;28;20039;-44
2024/02/01 02:06:05;;;;;;;30.23;16.25;;;5.90;99.90;;;;;;5073994;28;20046;-43
2024/02/01 02:08:30;;;;;;;31.73;17.77;;;5.90;99.90;;;;;;5071434;28;20013;-43
2024/02/01 02:10:57;;;;;;;26.83;16.98;;;5.90;99.90;;;;;;5067584;28;20489;-44
2024/02/01 02:13:22;;;;;;;27.13;17.17;;;5.90;99.90;;;;;;5067428;28;20039;-46
2024/02/01 02:15:48;;;;;;;32.65;18.52;;;6.00;99.90;;;;;;5067481;28;20438;-44
2024/02/01 02:18:13;;;;;;;29.23;18.05;;;6.00;99.90;;;;;;5067594;28;20039;-45
2024/02/01 02:20:42;;;;;;;32.33;18.20;;;6.00;99.90;;;;;;5071274;28;20271;-45
2024/02/01 02:23:10;;;;;;;35.97;19.45;;;6.00;99.90;;;;;;5067189;28;20024;-44
2024/02/01 02:25:36;;;;;;;31.25;18.70;;;5.90;99.90;;;;;;5067757;28;20020;-43
2024/02/01 02:28:01;;;;;;;36.67;20.27;;;5.90;99.90;;;;;;5067463;28;20335;-43
2024/02/01 02:30:27;;;;;;;29.50;19.35;;;5.90;99.90;;;;;;5067688;28;20024;-45
2024/02/01 02:32:53;;;;;;;33.47;19.77;;;5.90;99.90;;;;;;5067525;28;20017;-45
2024/02/01 02:35:19;;;;;;;38.70;20.45;;;5.90;99.90;;;;;;5067558;28;20051;-44
2024/02/01 02:37:49;;;;;;;34.20;20.70;;;5.90;99.90;;;;;;5070707;28;20035;-46
2024/02/01 02:40:16;;;;;;;34.05;19.77;;;5.90;99.90;;;;;;5067154;28;20028;-44
2024/02/01 02:42:42;;;;;;;35.53;20.25;;;5.90;99.90;;;;;;5067007;28;20052;-44
2024/02/01 02:45:08;;;;;;;34.67;21.45;;;5.90;99.90;;;;;;5076726;28;20596;-46
2024/02/01 02:47:34;;;;;;;31.70;19.10;;;5.90;99.90;;;;;;5067405;28;20020;-48
2024/02/01 02:49:59;;;;;;;32.88;19.25;;;5.90;99.90;;;;;;5066375;28;20020;-43
2024/02/01 02:52:25;;;;;;;29.08;18.95;;;6.00;99.90;;;;;;5074298;28;20099;-43
2024/02/01 02:54:51;;;;;;;36.42;20.42;;;6.00;99.90;;;;;;5071398;28;20027;-44
2024/02/01 02:57:16;;;;;;;33.53;18.67;;;6.00;99.90;;;;;;5073288;28;20024;-46
2024/02/01 02:59:42;;;;;;;32.38;19.20;;;6.00;99.90;;;;;;5077749;28;20056;-46
2024/02/01 03:02:08;;;;;;;27.58;17.75;;;6.00;99.90;;;;;;5070377;28;20024;-47
2024/02/01 03:04:34;;;;;;;32.55;19.38;;;6.00;99.90;;;;;;5069482;28;20447;-45
2024/02/01 03:07:00;;;;;;;31.10;19.20;;;6.00;99.90;;;;;;5070883;28;20144;-47
2024/02/01 03:09:25;;;;;;;31.95;18.92;;;6.00;99.90;;;;;;5066392;28;20108;-43
2024/02/01 03:11:51;;;;;;;29.17;19.05;;;6.10;99.90;;;;;;5070414;28;20099;-44
2024/02/01 03:14:17;;;;;;;30.08;18.10;;;6.10;99.90;;;;;;5075349;28;20375;-43
2024/02/01 03:16:42;;;;;;;32.00;18.83;;;6.10;99.90;;;;;;5069416;28;20032;-45
2024/02/01 03:19:11;;;;;;;28.67;17.55;;;6.10;99.90;;;;;;5075064;28;20033;-46
2024/02/01 03:21:37;;;;;;;30.33;19.00;;;6.10;99.90;;;;;;5070428;28;20023;-45
2024/02/01 03:24:03;;;;;;;32.80;18.60;;;6.10;99.90;;;;;;5070662;28;20515;-45
2024/02/01 03:26:34;;;;;;;31.90;19.45;;;6.10;99.90;;;;;;5074412;28;20040;-44
2024/02/01 03:29:01;;;;;;;28.92;18.80;;;6.10;99.90;;;;;;5071592;28;20067;-45
2024/02/01 03:31:33;;;;;;;29.23;18.38;;;6.10;99.90;;;;;;5070356;28;20024;-44
2024/02/01 03:34:10;;;;;;;33.80;18.75;;;6.10;99.90;;;;;;5066337;28;20036;-45
2024/02/01 03:36:38;;;;;;;31.95;18.80;;;6.10;99.90;;;;;;5067494;28;20020;-46
2024/02/01 03:39:22;;;;;;;29.50;17.98;;;6.10;99.90;;;;;;5070310;28;20024;-45
2024/02/01 03:41:57;;;;;;;28.13;17.75;;;6.10;99.90;;;;;;5069926;28;20024;-46
2024/02/01 03:44:23;;;;;;;30.05;17.33;;;6.10;99.90;;;;;;5074791;28;20028;-44
2024/02/01 03:46:51;;;;;;;27.48;17.25;;;6.10;99.90;;;;;;5074318;28;20028;-45
2024/02/01 03:49:17;;;;;;;27.83;17.90;;;6.20;99.90;;;;;;5070268;28;20033;-45
2024/02/01 03:51:43;;;;;;;33.17;19.45;;;6.20;99.90;;;;;;5069663;28;20295;-43
2024/02/01 03:54:09;;;;;;;27.58;18.02;;;6.20;99.90;;;;;;5069378;28;20636;-45
2024/02/01 03:56:38;;;;;;;33.40;18.30;;;6.20;99.90;;;;;;5070750;28;20040;-45
2024/02/01 03:59:08;;;;;;;29.27;17.60;;;6.20;99.90;;;;;;5067956;28;20526;-45
2024/02/01 04:01:33;;;;;;;26.48;17.30;;;6.20;99.90;;;;;;5069253;28;20024;-45
2024/02/01 04:03:59;;;;;;;29.10;18.42;;;6.20;99.90;;;;;;5069779;28;20023;-43
2024/02/01 04:06:25;;;;;;;29.02;18.20;;;6.20;99.90;;;;;;5069706;28;20135;-45
2024/02/01 04:08:51;;;;;;;28.02;19.38;;;6.30;99.90;;;;;;5074139;28;20024;-44
2024/02/01 04:11:17;;;;;;;29.45;18.08;;;6.30;99.90;;;;;;5073736;28;20428;-43
2024/02/01 04:13:42;;;;;;;32.97;20.45;;;6.30;99.90;;;;;;5069595;28;20024;-47
2024/02/01 04:16:08;;;;;;;33.97;19.15;;;6.30;99.90;;;;;;5067302;28;20029;-45
2024/02/01 04:18:34;;;;;;;29.85;19.73;;;6.30;99.90;;;;;;5068744;28;20482;-43
2024/02/01 04:21:00;;;;;;;30.67;19.75;;;6.30;99.90;;;;;;5067256;28;20402;-44
2024/02/01 04:23:26;;;;;;;30.75;19.45;;;6.30;99.90;;;;;;5072052;28;20494;-47
2024/02/01 04:25:52;;;;;;;30.42;19.15;;;6.30;99.90;;;;;;5070724;28;20016;-45
2024/02/01 04:28:18;;;;;;;34.45;20.30;;;6.30;99.90;;;;;;5079145;28;20027;-45
2024/02/01 04:30:50;;;;;;;33.28;20.45;;;6.30;99.90;;;;;;5077730;28;20405;-44
2024/02/01 04:33:22;;;;;;;34.83;19.80;;;6.30;99.90;;;;;;5079580;28;20020;-47
2024/02/01 04:35:48;;;;;;;34.15;21.17;;;6.40;99.90;;;;;;5078826;28;20016;-43
2024/02/01 04:38:14;;;;;;;33.47;20.70;;;6.40;99.90;;;;;;5070956;28;20505;-47
2024/02/01 04:40:43;;;;;;;33.55;21.13;;;6.40;99.90;;;;;;5072497;28;20052;-44
2024/02/01 04:43:09;;;;;;;36.05;21.00;;;6.40;99.90;;;;;;5069196;28;20021;-45
2024/02/01 04:45:34;;;;;;;38.85;21.10;;;6.40;99.90;;;;;;5074316;28;20374;-43
2024/02/01 04:48:00;;;;;;;37.53;21.60;;;6.40;99.90;;;;;;5073173;28;20024;-45
2024/02/01 04:50:26;;;;;;;33.45;20.88;;;6.40;99.90;;;;;;5074877;28;20024;-45
2024/02/01 04:52:51;;;;;;;36.00;22.13;;;6.40;99.90;;;;;;5070225;28;20028;-47
2024/02/01 04:55:17;;;;;;;36.15;21.52;;;6.40;99.90;;;;;;5075765;28;20606;-43
2024/02/01 04:57:43;;;;;;;32.17;20.75;;;6.40;99.90;;;;;;5070404;28;20066;-46
2024/02/01 05:00:17;;;;;;;37.25;21.23;;;6.50;99.90;;;;;;5070393;28;20025;-44
2024/02/01 05:02:43;;;;;;;36.63;20.38;;;6.50;99.90;;;;;;5070378;28;20466;-44
2024/02/01 05:05:10;;;;;;;37.45;20.02;;;6.50;99.90;;;;;;5071357;28;20691;-45
2024/02/01 05:07:36;;;;;;;34.72;20.77;;;6.50;99.90;;;;;;5068927;28;20363;-44
2024/02/01 05:10:02;;;;;;;35.97;20.35;;;6.50;99.90;;;;;;5069847;28;20055;-44
2024/02/01 05:12:28;;;;;;;32.45;19.50;;;6.50;99.90;;;;;;5068696;28;20021;-44
2024/02/01 05:14:54;;;;;;;32.60;20.80;;;6.50;99.90;;;;;;5069713;28;20021;-45
2024/02/01 05:17:20;;;;;;;35.17;20.48;;;6.50;99.90;;;;;;5071892;28;20150;-45
2024/02/01 05:19:46;;;;;;;35.20;21.48;;;6.50;99.90;;;;;;5072892;28;20104;-43
2024/02/01 05:22:11;;;;;;;35.72;19.73;;;6.50;99.90;;;;;;5067730;28;20032;-45
2024/02/01 05:24:37;;;;;;;33.75;20.23;;;6.50;99.90;;;;;;5068221;28;20043;-47
2024/02/01 05:27:07;;;;;;;36.20;20.10;;;6.50;99.90;;;;;;5070319;28;20060;-48
2024/02/01 05:29:34;;;;;;;;;;;6.60;99.90;;;;;;5070013;28;20027;-45
2024/02/01 05:32:00;;;;;;;30.85;19.25;;;6.60;99.90;;;;;;5070673;28;20369;-44
2024/02/01 05:34:26;;;;;;;31.70;19.85;;;6.60;99.90;;;;;;5066599;28;20032;-45
2024/02/01 05:36:52;;;;;;;32.75;19.38;;;6.60;99.90;;;;;;5068099;28;20032;-45
2024/02/01 05:39:25;;;;;;;32.08;18.73;;;6.70;99.90;;;;;;5069588;28;20625;-47
2024/02/01 05:42:04;;;;;;;31.48;19.02;;;6.70;99.90;;;;;;5071990;28;20029;-48
2024/02/01 05:44:31;;;;;;;28.67;18.30;;;6.70;99.90;;;;;;5069462;28;20106;-47
2024/02/01 05:46:57;;;;;;;34.30;20.35;;;6.70;99.90;;;;;;5069825;28;20033;-44
2024/02/01 05:49:28;;;;;;;34.15;19.20;;;6.70;99.90;;;;;;5069415;28;20032;-45
2024/02/01 05:51:59;;;;;;;31.85;19.25;;;6.70;99.90;;;;;;5069329;28;20035;-45
2024/02/01 05:54:24;;;;;;;30.42;18.27;;;6.70;99.90;;;;;;5071002;28;20032;-46
2024/02/01 05:56:50;;;;;;;29.58;17.85;;;6.80;99.90;;;;;;5069046;28;20032;-44
2024/02/01 05:59:17;;;;;;;29.73;18.98;;;6.80;99.90;;;;;;5069082;28;20029;-45
2024/02/01 06:01:44;;;;;;;27.02;17.20;;;6.80;99.90;;;;;;5067893;28;20043;-44
2024/02/01 06:04:11;;;;;;;27.27;18.23;;;6.80;99.90;;;;;;5067324;28;20159;-43
2024/02/01 06:06:39;;;;;;;28.02;17.65;;;6.80;99.90;;;;;;5068263;28;20044;-44
2024/02/01 06:09:10;;;;;;;27.27;17.13;;;6.80;99.90;;;;;;5070449;28;20025;-44
2024/02/01 06:11:36;;;;;;;26.35;16.02;;;6.90;99.90;;;;;;5072334;28;20025;-44
2024/02/01 06:14:02;;;;;;;27.00;17.13;;;6.90;99.90;;;;;;5070076;28;20024;-44
2024/02/01 06:16:28;;;;;;;26.77;15.27;;;6.90;99.90;;;;;;5070133;28;20024;-46
2024/02/01 06:18:53;;;;;;;19.73;13.75;;;6.80;99.90;;;;;;5070395;28;20524;-44
2024/02/01 06:21:20;;;;;;;25.88;14.45;;;6.80;99.90;;;;;;5071126;28;20021;-45
2024/02/01 06:23:46;;;;;;;23.08;14.38;;;6.70;99.90;;;;;;5069846;28;20016;-44
2024/02/01 06:26:25;;;;;;;25.50;13.60;;;6.70;99.90;;;;;;5069575;28;20446;-44
2024/02/01 06:28:53;;;;;;;21.23;14.00;;;6.60;99.90;;;;;;5077307;28;20054;-47
2024/02/01 06:31:19;;;;;;;25.63;14.90;;;6.60;99.90;;;;;;5075779;28;20028;-44
2024/02/01 06:33:45;;;;;;;24.52;14.85;;;6.50;99.90;;;;;;5075930;28;20025;-43
2024/02/01 06:36:13;;;;;;;24.25;13.82;;;6.50;99.90;;;;;;5075313;28;20029;-44
2024/02/01 06:39:08;;;;;;;27.40;13.10;;;6.50;99.90;;;;;;5074414;28;20563;-44
2024/02/01 06:44:21;;;;;;;20.20;12.02;;;6.50;99.90;;;;;;5075529;28;20044;-43
2024/02/01 06:46:49;;;;;;;22.58;11.10;;;6.50;99.90;;;;;;5074894;28;20024;-43
2024/02/01 06:49:28;;;;;;;23.60;12.50;;;6.50;99.90;;;;;;5072650;28;20016;-46
2024/02/01 06:52:02;;;;;;;20.50;11.05;;;6.50;99.90;;;;;;5074379;28;20024;-45
2024/02/01 06:54:39;;;;;;;22.08;11.65;;;6.50;99.90;;;;;;5075050;28;20028;-45
2024/02/01 06:57:13;;;;;;;17.17;9.75;;;6.40;99.90;;;;;;5067634;28;20045;-44
2024/02/01 07:02:47;;;;;;;20.55;9.20;;;6.40;99.90;;;;;;5072421;28;20035;-45
2024/02/01 07:05:25;;;;;;;18.60;9.68;;;6.40;99.90;;;;;;5068918;28;20090;-44
2024/02/01 07:07:51;;;;;;;21.30;10.57;;;6.40;99.90;;;;;;5072870;28;20012;-45
2024/02/01 07:10:19;;;;;;;19.45;10.25;;;6.30;99.90;;;;;;5071982;28;20013;-45
2024/02/01 07:13:06;;;;;;;18.88;10.43;;;6.30;99.90;;;;;;5069843;28;20027;-45
2024/02/01 07:15:32;;;;;;;19.15;9.90;;;6.30;99.90;;;;;;5072763;28;20052;-43
2024/02/01 07:18:14;;;;;;;35.63;11.13;;;6.30;99.90;;;;;;5072647;28;20098;-43
2024/02/01 07:20:50;;;;;;;18.90;9.40;;;6.20;99.90;;;;;;5072193;28;20021;-44
2024/02/01 07:25:48;;;;;;;21.08;10.50;;;6.20;99.90;;;;;;5072449;28;20358;-44
2024/02/01 07:58:30;;;;;;;22.67;8.27;;;6.30;99.90;;;;;;5071754;28;20078;-42
2024/02/01 08:00:57;;;;;;;23.55;7.95;;;6.30;99.90;;;;;;5073159;28;20027;-47
2024/02/01 08:08:37;;;;;;;21.55;7.15;;;6.30;99.90;;;;;;5072668;28;20027;-45
2024/02/01 08:11:04;;;;;;;17.88;7.05;;;6.40;99.90;;;;;;5071565;28;20028;-44
2024/02/01 08:13:30;;;;;;;19.48;8.00;;;6.40;99.90;;;;;;5069639;28;20024;-44
2024/02/01 08:15:56;;;;;;;23.67;8.32;;;6.50;99.90;;;;;;5071424;28;20028;-47
2024/02/01 08:18:24;;;;;;;20.35;6.30;;;6.50;99.90;;;;;;5069840;28;20048;-44
2024/02/01 08:20:49;;;;;;;24.92;6.68;;;6.60;99.90;;;;;;5066692;28;20020;-46
2024/02/01 08:23:21;;;;;;;30.67;6.07;;;6.60;99.90;;;;;;5069378;28;20017;-43
2024/02/01 08:25:50;;;;;;;18.98;5.15;;;6.50;99.90;;;;;;5073868;28;20513;-46
2024/02/01 08:28:16;;;;;;;18.38;4.82;;;6.50;99.90;;;;;;5071315;28;20075;-46
2024/02/01 08:30:45;;;;;;;24.10;4.85;;;6.50;99.90;;;;;;5072134;28;20466;-46
2024/02/01 08:33:19;;;;;;;23.10;4.97;;;6.50;99.90;;;;;;5070804;28;20021;-44
2024/02/01 08:35:46;;;;;;;20.10;5.35;;;6.50;99.90;;;;;;5071055;28;20020;-44
2024/02/01 08:38:12;;;;;;;22.58;4.70;;;6.40;99.90;;;;;;5071041;28;20024;-46
2024/02/01 08:40:42;;;;;;;22.83;5.18;;;6.30;99.90;;;;;;5071732;28;20099;-46
2024/02/01 08:43:12;;;;;;;18.35;4.85;;;6.40;99.90;;;;;;5069313;28;20021;-46
2024/02/01 08:45:42;;;;;;;24.75;7.15;;;6.40;99.90;;;;;;5070884;28;20024;-44
2024/02/01 08:48:08;;;;;;;18.02;4.28;;;6.50;99.90;;;;;;5070578;28;20048;-45
2024/02/01 08:50:42;;;;;;;30.02;4.40;;;6.50;99.90;;;;;;5070627;28;20032;-46
2024/02/01 08:53:11;;;;;;;20.73;4.88;;;6.50;99.90;;;;;;5070483;28;20024;-46
2024/02/01 08:55:38;;;;;;;20.65;4.68;;;6.50;99.90;;;;;;5071536;28;20626;-46
2024/02/01 08:58:11;;;;;;;27.02;5.32;;;6.50;99.90;;;;;;5070655;28;20139;-45
2024/02/01 09:00:43;;;;;;;30.23;4.72;;;6.40;99.90;;;;;;5070142;28;20028;-44
2024/02/01 09:03:16;;;;;;;26.27;5.47;;;6.50;99.90;;;;;;5070614;28;20028;-46
2024/02/01 09:05:44;;;;;;;22.67;4.65;;;6.50;99.90;;;;;;5068530;28;20488;-45
2024/02/01 09:08:12;;;;;;;19.35;4.50;;;6.50;99.90;;;;;;5070207;28;20024;-44
2024/02/01 09:11:00;;;;;;;19.13;4.68;;;6.60;99.90;;;;;;5070878;28;20370;-46
2024/02/01 09:13:30;;;;;;;13.98;3.78;;;6.80;99.90;;;;;;5069829;28;20394;-47
2024/02/01 09:15:59;;;;;;;30.20;5.35;;;6.90;99.90;;;;;;5069268;28;20039;-52
2024/02/01 09:18:24;;;;;;;22.77;5.05;;;7.00;99.90;;;;;;5069726;28;20024;-45
2024/02/01 09:20:51;;;;;;;25.92;5.03;;;7.10;99.90;;;;;;5069893;28;20028;-44
2024/02/01 09:23:16;;;;;;;38.17;5.70;;;7.20;99.90;;;;;;5069839;28;20489;-45
2024/02/01 09:25:42;;;;;;;30.02;6.22;;;7.30;99.90;;;;;;5069900;28;20029;-45
2024/02/01 09:28:12;;;;;;;27.73;5.50;;;7.40;99.90;;;;;;5069397;28;20108;-44
2024/02/01 09:30:48;;;;;;;30.58;5.93;;;7.40;99.90;;;;;;5070054;28;20028;-47
2024/02/01 09:33:19;;;;;;;29.42;5.25;;;7.40;99.90;;;;;;5070297;28;20040;-45
2024/02/01 09:35:46;;;;;;;32.60;5.65;;;7.40;99.90;;;;;;5069539;28;20029;-43
2024/02/01 09:38:12;;;;;;;30.13;6.97;;;7.50;99.90;;;;;;5069814;28;20553;-44
2024/02/01 09:40:43;;;;;;;31.05;5.05;;;7.50;99.90;;;;;;5069993;28;20028;-44
2024/02/01 09:43:23;;;;;;;26.80;5.90;;;7.50;99.90;;;;;;5069493;28;20507;-45
2024/02/01 09:45:55;;;;;;;21.10;5.28;;;7.60;99.90;;;;;;5069925;28;20020;-44
2024/02/01 09:48:21;;;;;;;29.92;6.32;;;7.70;99.90;;;;;;5069574;28;20073;-43
2024/02/01 09:50:51;;;;;;;29.85;5.30;;;7.90;99.90;;;;;;5069665;28;20024;-44
2024/02/01 09:53:21;;;;;;;30.25;5.82;;;7.90;99.90;;;;;;5069300;28;20089;-45
2024/02/01 09:56:00;;;;;;;16.85;4.82;;;8.00;99.90;;;;;;5069602;28;20103;-45
2024/02/01 09:58:29;;;;;;;26.17;5.05;;;8.00;99.90;;;;;;5070023;28;20020;-47
2024/02/01 10:00:55;;;;;;;21.85;4.47;;;8.20;99.90;;;;;;5069011;28;20032;-44
2024/02/01 10:03:26;;;;;;;26.00;5.75;;;8.30;99.90;;;;;;5068989;28;20074;-46
2024/02/01 10:05:51;;;;;;;27.00;4.55;;;8.40;99.90;;;;;;5067713;28;20680;-44
2024/02/01 10:08:18;;;;;;;33.35;6.95;;;8.40;99.90;;;;;;5069269;28;20024;-47
2024/02/01 10:10:48;;;;;;;32.03;7.00;;;8.30;99.90;;;;;;5069196;28;20089;-45
2024/02/01 10:13:14;;;;;;;28.92;5.15;;;8.20;99.90;;;;;;5069140;28;20031;-44
2024/02/01 10:15:45;;;;;;;24.65;5.05;;;8.40;99.90;;;;;;5069298;28;20029;-43
2024/02/01 10:18:21;;;;;;;26.30;5.57;;;8.50;99.90;;;;;;5069460;28;20366;-44
2024/02/01 10:20:48;;;;;;;25.95;4.88;;;8.60;99.90;;;;;;5069396;28;20017;-43
2024/02/01 10:23:13;;;;;;;27.80;5.38;;;8.90;99.90;;;;;;5069157;28;20540;-44
2024/02/01 10:25:56;;;;;;;23.42;4.82;;;9.40;99.90;;;;;;5069321;28;20029;-44
2024/02/01 10:28:25;;;;;;;19.83;5.05;;;9.20;99.90;;;;;;5069389;28;20032;-44
2024/02/01 10:30:51;;;;;;;32.67;5.68;;;8.90;99.90;;;;;;5069219;28;20151;-44
2024/02/01 10:33:26;;;;;;;27.08;4.93;;;9.10;99.90;;;;;;5068882;28;20448;-46
2024/02/01 10:35:52;;;;;;;30.42;5.22;;;9.00;99.90;;;;;;5069304;28;20123;-48
2024/02/01 10:38:23;;;;;;;15.75;4.32;;;9.40;99.90;;;;;;5068897;28;20024;-45
2024/02/01 10:41:03;;;;;;;32.53;5.65;;;9.40;99.90;;;;;;5068891;28;20599;-45
2024/02/01 10:43:30;;;;;;;23.00;4.97;;;9.20;99.90;;;;;;5069034;28;20099;-44
2024/02/01 10:46:05;;;;;;;20.80;5.95;;;10.30;99.90;;;;;;5077558;28;20032;-46
2024/02/01 10:48:34;;;;;;;22.52;6.07;;;11.40;99.90;;;;;;5076069;28;20023;-45
2024/02/01 10:51:09;;;;;;;17.80;5.53;;;11.30;99.90;;;;;;5067331;28;20638;-45
2024/02/01 10:53:43;;;;;;;28.17;6.90;;;11.00;99.90;;;;;;5064530;28;20097;-45
2024/02/01 10:56:14;;;;;;;25.42;5.18;;;10.70;99.90;;;;;;5064710;28;20051;-48
2024/02/01 10:58:41;;;;;;;18.27;4.57;;;10.10;99.90;;;;;;5078231;28;20657;-44
2024/02/01 11:01:07;;;;;;;22.70;4.80;;;9.70;99.90;;;;;;5071499;28;20024;-43
2024/02/01 11:03:32;;;;;;;27.30;4.68;;;10.00;99.90;;;;;;5068232;28;20119;-43
2024/02/01 11:05:58;;;;;;;23.85;5.68;;;11.10;99.90;;;;;;5063423;28;20403;-45
2024/02/01 11:08:32;;;;;;;16.63;4.13;;;11.70;99.90;;;;;;5067766;28;20016;-46
2024/02/01 11:11:15;;;;;;;22.05;5.18;;;11.90;99.90;;;;;;5069009;28;20618;-48
2024/02/01 11:14:01;;;;;;;19.08;4.85;;;12.00;99.90;;;;;;5071953;28;20525;-47
2024/02/01 11:16:40;;;;;;;14.18;5.18;;;13.00;99.60;;;;;;5066535;28;20078;-43
2024/02/01 11:19:14;;;;;;;20.77;5.35;;;14.00;96.80;;;;;;5072890;28;20509;-44
2024/02/01 11:21:48;;;;;;;14.63;4.97;;;14.10;95.80;;;;;;5071846;28;20025;-45
2024/02/01 11:24:19;;;;;;;14.10;4.07;;;14.00;96.40;;;;;;5072175;28;20055;-43
2024/02/01 11:26:54;;;;;;;22.77;5.78;;;14.30;94.50;;;;;;5072178;28;20017;-45
2024/02/01 11:29:23;;;;;;;20.27;5.68;;;14.50;94.70;;;;;;5071035;28;20533;-44
2024/02/01 11:31:54;;;;;;;19.75;5.68;;;14.50;93.10;;;;;;5071430;28;20056;-47
2024/02/01 11:34:22;;;;;;;22.05;5.13;;;13.20;94.30;;;;;;5071967;28;20048;-44
2024/02/01 11:36:48;;;;;;;19.23;5.20;;;12.10;95.40;;;;;;5071762;28;20402;-46
2024/02/01 11:39:15;;;;;;;17.00;4.65;;;12.30;95.60;;;;;;5075326;28;20048;-43
2024/02/01 11:41:48;;;;;;;14.55;3.75;;;11.80;97.30;;;;;;5071457;28;20073;-44
2024/02/01 11:44:15;;;;;;;18.77;4.25;;;12.00;97.40;;;;;;5072039;28;20020;-48
2024/02/01 11:46:46;;;;;;;12.48;4.13;;;12.70;97.00;;;;;;5071806;28;20017;-47
2024/02/01 11:49:18;;;;;;;22.35;4.68;;;13.30;95.60;;;;;;5071578;28;20022;-45
2024/02/01 11:51:45;;;;;;;18.08;4.88;;;14.20;94.20;;;;;;5071260;28;20017;-44
2024/02/01 11:54:11;;;;;;;19.33;4.85;;;14.90;93.50;;;;;;5079270;28;20024;-45
2024/02/01 11:56:37;;;;;;;10.82;3.63;;;15.30;93.30;;;;;;5071564;28;20089;-48
2024/02/01 11:59:04;;;;;;;22.88;5.32;;;15.30;92.40;;;;;;5071304;28;20483;-47
2024/02/01 12:01:30;;;;;;;17.92;4.88;;;15.20;91.30;;;;;;5071381;28;20052;-46
2024/02/01 12:03:57;;;;;;;18.98;5.32;;;15.40;90.90;;;;;;5071128;28;20047;-45
2024/02/01 12:06:24;;;;;;;21.95;5.00;;;14.90;90.50;;;;;;5069987;28;20042;-44
2024/02/01 12:08:50;;;;;;;19.55;5.07;;;15.10;91.40;;;;;;5071196;28;20020;-44
2024/02/01 12:11:19;;;;;;;31.35;6.72;;;14.30;90.60;;;;;;5071358;28;20044;-44
2024/02/01 12:13:47;;;;;;;20.08;5.22;;;14.20;91.40;;;;;;5070972;28;20043;-47
2024/02/01 12:16:24;;;;;;;19.83;5.72;;;13.80;92.00;;;;;;5071269;28;20042;-45
2024/02/01 12:18:50;;;;;;;17.00;4.70;;;13.90;91.90;;;;;;5070878;28;20595;-46
2024/02/01 12:21:26;;;;;;;18.73;4.82;;;14.00;92.10;;;;;;5083219;28;20055;-44
2024/02/01 12:23:53;;;;;;;21.33;5.07;;;14.30;92.30;;;;;;5077017;28;20008;-45
2024/02/01 12:26:19;;;;;;;18.90;4.70;;;14.10;91.60;;;;;;5070789;28;20493;-45
2024/02/01 12:28:45;;;;;;;16.80;5.35;;;13.60;91.70;;;;;;5078017;28;20039;-48
2024/02/01 12:31:11;;;;;;;22.63;5.00;;;13.30;92.60;;;;;;5073420;28;20408;-45
2024/02/01 12:33:39;;;;;;;20.02;4.78;;;12.70;93.10;;;;;;5073603;28;20028;-45
2024/02/01 12:36:05;;;;;;;15.32;4.70;;;12.10;95.10;;;;;;5070893;28;20397;-46
2024/02/01 12:38:40;;;;;;;18.60;5.20;;;12.00;95.50;;;;;;5070870;28;20099;-46
2024/02/01 12:41:10;;;;;;;21.25;5.03;;;11.60;95.60;;;;;;5070617;28;20074;-44
2024/02/01 12:43:36;;;;;;;23.80;5.32;;;11.40;95.60;;;;;;5069068;28;20016;-44
2024/02/01 12:46:02;;;;;;;25.05;5.65;;;11.50;95.70;;;;;;5073487;28;20028;-44
2024/02/01 12:48:28;;;;;;;22.15;5.13;;;11.10;96.60;;;;;;5075273;28;20056;-44
2024/02/01 12:50:54;;;;;;;24.13;4.75;;;11.00;97.10;;;;;;5070172;28;20134;-45
2024/02/01 12:53:20;;;;;;;20.35;4.72;;;10.50;97.30;;;;;;5068819;28;20550;-47
2024/02/01 12:55:45;;;;;;;20.42;4.90;;;10.20;97.90;;;;;;5070260;28;20016;-45
2024/02/01 12:58:17;;;;;;;34.03;5.78;;;9.90;98.10;;;;;;5075534;28;20023;-47
2024/02/01 13:00:43;;;;;;;24.45;3.92;;;9.80;99.30;;;;;;5069979;28;20052;-48
2024/02/01 13:03:10;;;;;;;17.70;4.45;;;9.70;99.90;;;;;;5075829;28;20060;-44
2024/02/01 13:05:36;;;;;;;21.63;5.25;;;9.70;99.90;;;;;;5070268;28;20024;-44
2024/02/01 13:08:04;;;;;;;24.00;5.55;;;9.80;99.90;;;;;;5077190;28;20013;-45
2024/02/01 13:10:38;;;;;;;24.35;5.22;;;9.70;99.90;;;;;;5075323;28;20065;-42
2024/02/01 13:13:06;;;;;;;25.20;4.60;;;9.60;99.90;;;;;;5078610;28;20111;-43
2024/02/01 13:15:32;;;;;;;27.15;5.10;;;9.70;99.90;;;;;;5072832;28;20024;-44
2024/02/01 13:17:57;;;;;;;22.65;5.53;;;9.70;99.90;;;;;;5069839;28;20430;-45
2024/02/01 13:20:26;;;;;;;16.98;5.25;;;9.70;99.90;;;;;;5069751;28;20059;-45
2024/02/01 13:22:52;;;;;;;25.98;4.82;;;9.80;99.90;;;;;;5068789;28;20020;-47
2024/02/01 13:25:21;;;;;;;28.35;4.50;;;9.70;99.90;;;;;;5069291;28;20104;-48
2024/02/01 13:27:52;;;;;;;23.88;4.32;;;9.70;99.90;;;;;;5069853;28;20078;-45
2024/02/01 13:30:19;;;;;;;27.55;6.13;;;9.90;99.90;;;;;;5069344;28;20020;-44